Time,TemperatureF,DewpointF,PressureIn,WindDirection,WindDirectionDegrees,WindSpeedMPH,WindSpeedGustMPH,Humidity,HourlyPrecipIn,Conditions,Clouds,dailyrainin,SoftwareType,DateUTC
2013-01-16 00:02:00,52.0,43.0,29.63,South,190,10.0,12.0,72,0.00,,,0.05,,2013-01-15 23:02:00,
2013-01-16 00:12:00,52.0,43.0,29.63,South,190,10.0,12.0,72,0.00,,,0.05,,2013-01-15 23:12:00,
2013-01-16 00:22:00,52.0,44.0,29.63,South,177,5.0,10.0,75,0.00,,,0.05,,2013-01-15 23:22:00,
2013-01-16 00:32:00,51.0,43.0,29.62,SSE,168,4.0,9.0,74,0.00,,,0.05,,2013-01-15 23:32:00,
2013-01-16 00:42:00,51.0,43.0,29.62,SSE,168,4.0,9.0,74,0.00,,,0.05,,2013-01-15 23:42:00,
2013-01-16 00:52:00,52.0,45.0,29.62,SW,218,8.0,12.0,76,0.00,,,0.05,,2013-01-15 23:52:00,
2013-01-16 01:02:00,51.0,44.0,29.61,SW,234,13.0,21.0,77,0.00,,,0.05,,2013-01-16 00:02:00,
2013-01-16 01:12:00,51.0,44.0,29.61,SW,234,13.0,21.0,77,0.00,,,0.05,,2013-01-16 00:12:00,
2013-01-16 01:22:00,50.0,43.0,29.61,SW,227,11.0,17.0,76,0.01,,,0.05,,2013-01-16 00:22:00,
2013-01-16 01:32:00,52.0,45.0,29.60,South,191,8.0,16.0,78,0.01,,,0.05,,2013-01-16 00:32:00,
2013-01-16 01:42:00,52.0,45.0,29.60,South,191,8.0,16.0,78,0.01,,,0.05,,2013-01-16 00:42:00,
2013-01-16 01:52:00,52.0,45.0,29.59,SSW,194,10.0,18.0,76,0.01,,,0.05,,2013-01-16 00:52:00,
2013-01-16 02:02:00,52.0,44.0,29.58,South,170,10.0,15.0,74,0.01,,,0.05,,2013-01-16 01:02:00,
2013-01-16 02:11:00,52.0,44.0,29.58,South,170,10.0,15.0,74,0.01,,,0.05,,2013-01-16 01:11:00,
2013-01-16 02:22:00,52.0,45.0,29.57,SSW,200,10.0,16.0,76,0.01,,,0.05,,2013-01-16 01:22:00,
2013-01-16 02:32:00,53.0,45.0,29.57,SSW,213,20.0,23.0,74,0.00,,,0.05,,2013-01-16 01:32:00,
2013-01-16 02:42:00,53.0,45.0,29.57,SSW,213,20.0,23.0,74,0.00,,,0.05,,2013-01-16 01:42:00,
2013-01-16 02:52:00,53.0,44.0,29.56,SSW,207,11.0,16.0,72,0.00,,,0.05,,2013-01-16 01:52:00,
2013-01-16 03:02:00,54.0,46.0,29.55,SSE,165,10.0,19.0,74,0.00,,,0.05,,2013-01-16 02:02:00,
2013-01-16 03:11:00,54.0,46.0,29.55,SSE,165,10.0,19.0,74,0.00,,,0.05,,2013-01-16 02:11:00,
2013-01-16 03:22:00,53.0,44.0,29.54,South,170,15.0,19.0,71,0.00,,,0.05,,2013-01-16 02:22:00,
2013-01-16 03:32:00,49.0,45.0,29.52,SSE,168,9.0,30.0,86,0.06,,,0.11,,2013-01-16 02:32:00,
2013-01-16 03:42:00,49.0,45.0,29.52,SSE,168,9.0,30.0,86,0.06,,,0.11,,2013-01-16 02:42:00,
2013-01-16 03:52:00,50.0,46.0,29.51,SSE,161,10.0,20.0,86,0.07,,,0.12,,2013-01-16 02:52:00,
2013-01-16 04:02:00,49.0,45.0,29.51,West,263,23.0,29.0,86,0.14,,,0.18,,2013-01-16 03:02:00,
2013-01-16 04:11:00,48.0,44.0,29.51,WSW,242,7.0,19.0,87,0.17,,,0.21,,2013-01-16 03:11:00,
2013-01-16 04:22:00,48.0,44.0,29.51,WSW,242,7.0,19.0,87,0.17,,,0.21,,2013-01-16 03:22:00,
2013-01-16 04:32:00,49.0,46.0,29.50,WSW,247,13.0,28.0,88,0.15,,,0.25,,2013-01-16 03:32:00,
2013-01-16 04:42:00,49.0,46.0,29.50,WSW,247,13.0,28.0,88,0.15,,,0.25,,2013-01-16 03:42:00,
2013-01-16 04:52:00,50.0,45.0,29.50,West,265,15.0,25.0,82,0.13,,,0.25,,2013-01-16 03:52:00,
2013-01-16 05:02:00,50.0,43.0,29.51,West,259,17.0,27.0,78,0.07,,,0.25,,2013-01-16 04:02:00,
2013-01-16 05:11:00,50.0,43.0,29.51,West,259,17.0,27.0,78,0.07,,,0.25,,2013-01-16 04:11:00,
2013-01-16 05:22:00,50.0,43.0,29.51,WNW,300,4.0,23.0,78,0.04,,,0.25,,2013-01-16 04:22:00,
2013-01-16 05:32:00,51.0,41.0,29.51,West,279,18.0,23.0,68,0.01,,,0.25,,2013-01-16 04:32:00,
2013-01-16 05:42:00,51.0,41.0,29.51,West,279,18.0,23.0,68,0.01,,,0.25,,2013-01-16 04:42:00,
2013-01-16 05:52:00,50.0,40.0,29.52,West,263,15.0,25.0,69,0.00,,,0.25,,2013-01-16 04:52:00,
2013-01-16 06:03:00,50.0,38.0,29.53,WNW,284,15.0,19.0,64,0.00,,,0.25,,2013-01-16 05:03:00,
2013-01-16 06:12:00,50.0,38.0,29.53,WNW,284,15.0,19.0,64,0.00,,,0.25,,2013-01-16 05:12:00,
2013-01-16 06:22:00,51.0,40.0,29.53,West,273,14.0,25.0,65,0.00,,,0.25,,2013-01-16 05:22:00,
2013-01-16 06:32:00,51.0,37.0,29.53,WSW,242,14.0,21.0,59,0.00,,,0.25,,2013-01-16 05:32:00,
2013-01-16 06:42:00,51.0,37.0,29.53,WSW,242,14.0,21.0,59,0.00,,,0.25,,2013-01-16 05:42:00,
2013-01-16 06:52:00,50.0,37.0,29.53,North,10,5.0,19.0,61,0.00,,,0.25,,2013-01-16 05:52:00,
2013-01-16 07:02:00,50.0,35.0,29.54,WSW,240,10.0,26.0,57,0.00,,,0.25,,2013-01-16 06:02:00,
2013-01-16 07:11:00,50.0,35.0,29.54,WSW,240,10.0,26.0,57,0.00,,,0.25,,2013-01-16 06:11:00,
2013-01-16 07:22:00,50.0,36.0,29.54,West,269,11.0,21.0,58,0.00,,,0.25,,2013-01-16 06:22:00,
2013-01-16 07:32:00,47.0,37.0,29.55,West,277,14.0,32.0,67,0.00,,,0.25,,2013-01-16 06:32:00,
2013-01-16 07:42:00,47.0,37.0,29.55,West,277,14.0,32.0,67,0.00,,,0.25,,2013-01-16 06:42:00,
2013-01-16 07:52:00,47.0,38.0,29.54,West,277,6.0,14.0,71,0.01,,,0.26,,2013-01-16 06:52:00,
2013-01-16 08:02:00,50.0,38.0,29.54,West,269,9.0,25.0,62,0.01,,,0.26,,2013-01-16 07:02:00,
2013-01-16 08:11:00,50.0,38.0,29.54,West,269,9.0,25.0,62,0.01,,,0.26,,2013-01-16 07:11:00,
2013-01-16 08:22:00,50.0,38.0,29.54,WSW,250,10.0,21.0,62,0.01,,,0.26,,2013-01-16 07:22:00,
2013-01-16 08:32:00,49.0,37.0,29.55,SW,221,13.0,19.0,64,0.02,,,0.27,,2013-01-16 07:32:00,
2013-01-16 08:42:00,49.0,37.0,29.55,SW,221,13.0,19.0,64,0.02,,,0.27,,2013-01-16 07:42:00,
2013-01-16 08:52:00,49.0,38.0,29.54,WSW,250,10.0,19.0,65,0.01,,,0.27,,2013-01-16 07:52:00,
2013-01-16 09:02:00,49.0,37.0,29.55,West,279,17.0,22.0,63,0.01,,,0.27,,2013-01-16 08:02:00,
2013-01-16 09:11:00,49.0,37.0,29.55,West,279,17.0,22.0,63,0.01,,,0.27,,2013-01-16 08:11:00,
2013-01-16 09:22:00,49.0,36.0,29.54,West,276,10.0,15.0,61,0.01,,,0.27,,2013-01-16 08:22:00,
2013-01-16 09:32:00,49.0,37.0,29.54,SW,234,8.0,17.0,63,0.00,,,0.27,,2013-01-16 08:32:00,
2013-01-16 09:42:00,49.0,37.0,29.54,SW,234,8.0,17.0,63,0.00,,,0.27,,2013-01-16 08:42:00,
2013-01-16 09:52:00,50.0,38.0,29.54,WSW,245,4.0,12.0,64,0.00,,,0.27,,2013-01-16 08:52:00,
2013-01-16 10:02:00,50.0,38.0,29.53,WSW,238,15.0,16.0,64,0.00,,,0.27,,2013-01-16 09:02:00,
2013-01-16 10:11:00,50.0,38.0,29.53,WSW,238,15.0,16.0,64,0.00,,,0.27,,2013-01-16 09:11:00,
2013-01-16 10:22:00,49.0,38.0,29.53,WSW,252,12.0,17.0,65,0.00,,,0.27,,2013-01-16 09:22:00,
2013-01-16 10:32:00,49.0,35.0,29.53,West,268,9.0,23.0,59,0.00,,,0.27,,2013-01-16 09:32:00,
2013-01-16 10:42:00,49.0,35.0,29.53,West,268,9.0,23.0,59,0.00,,,0.27,,2013-01-16 09:42:00,
2013-01-16 10:52:00,50.0,36.0,29.52,West,269,8.0,19.0,58,0.00,,,0.27,,2013-01-16 09:52:00,
2013-01-16 11:02:00,49.0,36.0,29.52,WSW,253,10.0,17.0,60,0.00,,,0.27,,2013-01-16 10:02:00,
2013-01-16 11:11:00,49.0,36.0,29.52,WSW,253,10.0,17.0,60,0.00,,,0.27,,2013-01-16 10:11:00,
2013-01-16 11:22:00,46.0,37.0,29.54,SW,234,10.0,30.0,70,0.02,,,0.29,,2013-01-16 10:22:00,
2013-01-16 11:32:00,47.0,37.0,29.52,West,273,16.0,23.0,67,0.03,,,0.30,,2013-01-16 10:32:00,
2013-01-16 11:42:00,47.0,37.0,29.52,West,273,16.0,23.0,67,0.03,,,0.30,,2013-01-16 10:42:00,
2013-01-16 11:52:00,45.0,38.0,29.54,SSW,200,17.0,22.0,77,0.03,,,0.30,,2013-01-16 10:52:00,
2013-01-16 12:02:00,43.0,38.0,29.52,WNW,288,9.0,15.0,83,0.04,,,0.31,,2013-01-16 11:02:00,
2013-01-16 12:11:00,43.0,38.0,29.52,WNW,288,9.0,15.0,83,0.04,,,0.31,,2013-01-16 11:11:00,
2013-01-16 12:22:00,46.0,38.0,29.51,WSW,251,8.0,15.0,74,0.04,,,0.31,,2013-01-16 11:22:00,
2013-01-16 12:32:00,46.0,38.0,29.51,West,265,5.0,15.0,74,0.01,,,0.31,,2013-01-16 11:32:00,
2013-01-16 12:42:00,46.0,38.0,29.51,West,265,5.0,15.0,74,0.01,,,0.31,,2013-01-16 11:42:00,
2013-01-16 12:52:00,47.0,41.0,29.49,West,259,13.0,14.0,78,0.02,,,0.32,,2013-01-16 11:52:00,
2013-01-16 13:02:00,47.0,41.0,29.49,West,273,16.0,19.0,78,0.01,,,0.32,,2013-01-16 12:02:00,
2013-01-16 13:12:00,47.0,41.0,29.49,West,273,16.0,19.0,78,0.01,,,0.32,,2013-01-16 12:12:00,
2013-01-16 13:22:00,47.0,39.0,29.48,WNW,300,9.0,11.0,75,0.01,,,0.32,,2013-01-16 12:22:00,
2013-01-16 13:33:00,47.0,39.0,29.48,SW,234,8.0,20.0,73,0.01,,,0.32,,2013-01-16 12:33:00,
2013-01-16 13:42:00,47.0,39.0,29.48,SW,234,8.0,20.0,73,0.01,,,0.32,,2013-01-16 12:42:00,
2013-01-16 13:52:00,47.0,39.0,29.47,SW,231,6.0,14.0,73,0.00,,,0.32,,2013-01-16 12:52:00,
2013-01-16 14:02:00,46.0,39.0,29.46,West,262,4.0,25.0,77,0.00,,,0.30,,2013-01-16 13:02:00,
2013-01-16 14:12:00,46.0,39.0,29.46,West,262,4.0,25.0,77,0.00,,,0.30,,2013-01-16 13:12:00,
2013-01-16 14:22:00,46.0,38.0,29.46,WSW,241,12.0,20.0,74,0.00,,,0.30,,2013-01-16 13:22:00,
2013-01-16 14:32:00,47.0,38.0,29.46,West,263,7.0,21.0,72,0.00,,,0.29,,2013-01-16 13:32:00,
2013-01-16 14:42:00,47.0,38.0,29.46,West,263,7.0,21.0,72,0.00,,,0.29,,2013-01-16 13:42:00,
2013-01-16 14:52:00,46.0,38.0,29.48,NNE,26,6.0,18.0,74,0.00,,,0.29,,2013-01-16 13:52:00,
2013-01-16 15:02:00,43.0,38.0,29.48,NW,319,7.0,11.0,82,0.05,,,0.34,,2013-01-16 14:02:00,
2013-01-16 15:11:00,43.0,38.0,29.48,NW,319,7.0,11.0,82,0.05,,,0.34,,2013-01-16 14:11:00,
2013-01-16 15:22:00,43.0,38.0,29.48,NW,311,9.0,12.0,83,0.07,,,0.36,,2013-01-16 14:22:00,
2013-01-16 15:32:00,45.0,39.0,29.48,NW,315,11.0,17.0,78,0.09,,,0.37,,2013-01-16 14:32:00,
2013-01-16 15:42:00,45.0,39.0,29.48,NW,315,11.0,17.0,78,0.09,,,0.37,,2013-01-16 14:42:00,
2013-01-16 15:52:00,44.0,38.0,29.48,NNW,336,6.0,9.0,78,0.09,,,0.37,,2013-01-16 14:52:00,
2013-01-16 16:02:00,43.0,38.0,29.49,NW,313,6.0,12.0,81,0.09,,,0.39,,2013-01-16 15:02:00,
2013-01-16 16:11:00,43.0,38.0,29.49,NW,313,6.0,12.0,81,0.09,,,0.39,,2013-01-16 15:11:00,
2013-01-16 16:22:00,42.0,37.0,29.48,NNW,344,3.0,6.0,82,0.06,,,0.40,,2013-01-16 15:22:00,
2013-01-16 16:32:00,43.0,38.0,29.49,NNW,344,1.0,1.0,82,0.04,,,0.40,,2013-01-16 15:32:00,
2013-01-16 16:42:00,43.0,38.0,29.49,NNW,344,1.0,1.0,82,0.04,,,0.40,,2013-01-16 15:42:00,
2013-01-16 16:52:00,43.0,38.0,29.49,NNW,344,2.0,3.0,83,0.03,,,0.40,,2013-01-16 15:52:00,
2013-01-16 17:02:00,42.0,37.0,29.49,NNW,344,1.0,1.0,83,0.01,,,0.40,,2013-01-16 16:02:00,
2013-01-16 17:11:00,42.0,37.0,29.49,NNW,344,1.0,1.0,83,0.01,,,0.40,,2013-01-16 16:11:00,
2013-01-16 17:22:00,42.0,38.0,29.49,NNW,344,3.0,3.0,84,0.00,,,0.40,,2013-01-16 16:22:00,
2013-01-16 17:32:00,43.0,38.0,29.51,NNE,12,3.0,3.0,84,0.02,,,0.42,,2013-01-16 16:32:00,
2013-01-16 17:42:00,43.0,38.0,29.51,NNE,12,3.0,3.0,84,0.02,,,0.42,,2013-01-16 16:42:00,
2013-01-16 17:52:00,42.0,38.0,29.52,NW,325,3.0,8.0,86,0.05,,,0.45,,2013-01-16 16:52:00,
2013-01-16 18:02:00,43.0,39.0,29.51,NW,322,2.0,3.0,86,0.06,,,0.46,,2013-01-16 17:02:00,
2013-01-16 18:12:00,43.0,39.0,29.51,NW,322,2.0,3.0,86,0.06,,,0.46,,2013-01-16 17:12:00,
2013-01-16 18:22:00,43.0,39.0,29.51,NW,322,0.0,3.0,86,0.06,,,0.46,,2013-01-16 17:22:00,
2013-01-16 18:33:00,43.0,39.0,29.51,NNE,15,2.0,2.0,85,0.05,,,0.46,,2013-01-16 17:33:00,
2013-01-16 18:42:00,43.0,39.0,29.51,NNE,15,2.0,2.0,85,0.05,,,0.46,,2013-01-16 17:42:00,
2013-01-16 18:52:00,43.0,39.0,29.51,NNE,15,3.0,3.0,86,0.01,,,0.46,,2013-01-16 17:52:00,
2013-01-16 19:02:00,43.0,39.0,29.52,NE,41,3.0,3.0,86,0.00,,,0.46,,2013-01-16 18:02:00,
2013-01-16 19:12:00,44.0,40.0,29.52,East,90,3.0,5.0,86,0.00,,,0.46,,2013-01-16 18:12:00,
2013-01-16 19:22:00,44.0,40.0,29.52,East,90,3.0,5.0,86,0.00,,,0.46,,2013-01-16 18:22:00,
2013-01-16 19:33:00,44.0,40.0,29.52,ESE,103,3.0,6.0,86,0.00,,,0.46,,2013-01-16 18:33:00,
2013-01-16 19:42:00,44.0,40.0,29.52,ESE,103,3.0,6.0,86,0.00,,,0.46,,2013-01-16 18:42:00,
2013-01-16 19:52:00,45.0,40.0,29.51,ESE,104,2.0,6.0,84,0.00,,,0.46,,2013-01-16 18:52:00,
2013-01-16 20:02:00,44.0,39.0,29.52,ESE,105,3.0,3.0,83,0.00,,,0.46,,2013-01-16 19:02:00,
2013-01-16 20:12:00,44.0,39.0,29.52,ESE,105,3.0,3.0,83,0.00,,,0.46,,2013-01-16 19:12:00,
2013-01-16 20:22:00,44.0,39.0,29.52,ESE,107,3.0,3.0,83,0.00,,,0.46,,2013-01-16 19:22:00,
2013-01-16 20:32:00,47.0,41.0,29.51,ESE,117,2.0,4.0,78,0.00,,,0.46,,2013-01-16 19:32:00,
2013-01-16 20:42:00,47.0,41.0,29.51,ESE,117,2.0,4.0,78,0.00,,,0.46,,2013-01-16 19:42:00,
2013-01-16 20:52:00,47.0,40.0,29.52,ESE,116,3.0,4.0,77,0.00,,,0.46,,2013-01-16 19:52:00,
2013-01-16 21:02:00,48.0,40.0,29.52,NW,311,4.0,10.0,75,0.00,,,0.46,,2013-01-16 20:02:00,
2013-01-16 21:11:00,48.0,40.0,29.52,NW,311,4.0,10.0,75,0.00,,,0.46,,2013-01-16 20:11:00,
2013-01-16 21:22:00,48.0,40.0,29.51,West,277,2.0,9.0,74,0.00,,,0.46,,2013-01-16 20:22:00,
2013-01-16 21:32:00,46.0,39.0,29.51,NE,54,0.0,0.0,77,0.00,,,0.46,,2013-01-16 20:32:00,
2013-01-16 21:42:00,46.0,39.0,29.51,NE,54,0.0,0.0,77,0.00,,,0.46,,2013-01-16 20:42:00,
2013-01-16 21:52:00,46.0,39.0,29.51,NE,54,3.0,3.0,77,0.00,,,0.46,,2013-01-16 20:52:00,
2013-01-16 22:02:00,47.0,39.0,29.51,ENE,69,2.0,2.0,75,0.00,,,0.46,,2013-01-16 21:02:00,
2013-01-16 22:12:00,47.0,39.0,29.51,ENE,69,2.0,2.0,75,0.00,,,0.46,,2013-01-16 21:12:00,
2013-01-16 22:22:00,48.0,40.0,29.51,ENE,69,2.0,3.0,74,0.00,,,0.46,,2013-01-16 21:22:00,
2013-01-16 22:32:00,48.0,41.0,29.51,WSW,251,6.0,11.0,76,0.01,,,0.47,,2013-01-16 21:32:00,
2013-01-16 22:42:00,48.0,41.0,29.51,WSW,251,6.0,11.0,76,0.01,,,0.47,,2013-01-16 21:42:00,
2013-01-16 22:52:00,48.0,42.0,29.51,WSW,248,2.0,9.0,79,0.01,,,0.47,,2013-01-16 21:52:00,
2013-01-16 23:02:00,47.0,41.0,29.50,WSW,248,3.0,7.0,81,0.02,,,0.48,,2013-01-16 22:02:00,
2013-01-16 23:11:00,47.0,41.0,29.50,WSW,248,3.0,7.0,81,0.02,,,0.48,,2013-01-16 22:11:00,
2013-01-16 23:22:00,47.0,41.0,29.50,SW,232,4.0,5.0,81,0.02,,,0.48,,2013-01-16 22:22:00,
2013-01-16 23:32:00,47.0,42.0,29.50,WSW,251,6.0,9.0,82,0.04,,,0.50,,2013-01-16 22:32:00,
2013-01-16 23:42:00,47.0,42.0,29.50,WSW,251,6.0,9.0,82,0.04,,,0.50,,2013-01-16 22:42:00,
2013-01-16 23:52:00,47.0,42.0,29.50,West,266,4.0,9.0,83,0.04,,,0.51,,2013-01-16 22:52:00,